sensor_id;sensor_type;location;lat;lon;timestamp;temperature;humidity
32524;DHT22;18965;52.242;20.886;2023-02-01T00:16:26;4.90;82.90
32524;DHT22;18965;52.242;20.886;2023-02-01T00:19:00;5.00;83.40
32524;DHT22;18965;52.242;20.886;2023-02-01T00:21:27;5.00;83.00
32524;DHT22;18965;52.242;20.886;2023-02-01T00:26:24;5.10;82.80
32524;DHT22;18965;52.242;20.886;2023-02-01T00:38:37;5.10;82.90
32524;DHT22;18965;52.242;20.886;2023-02-01T00:41:05;5.10;82.90
32524;DHT22;18965;52.242;20.886;2023-02-01T00:43:32;5.20;82.70
32524;DHT22;18965;52.242;20.886;2023-02-01T00:45:58;5.20;82.60
32524;DHT22;18965;52.242;20.886;2023-02-01T00:53:16;5.20;82.40
32524;DHT22;18965;52.242;20.886;2023-02-01T00:55:45;5.20;82.10
32524;DHT22;18965;52.242;20.886;2023-02-01T01:03:03;5.20;81.70
32524;DHT22;18965;52.242;20.886;2023-02-01T01:05:47;5.20;81.60
32524;DHT22;18965;52.242;20.886;2023-02-01T01:08:14;3.80;80.70
32524;DHT22;18965;52.242;20.886;2023-02-01T01:10:41;5.20;81.60
32524;DHT22;18965;52.242;20.886;2023-02-01T01:13:07;5.30;81.70
32524;DHT22;18965;52.242;20.886;2023-02-01T01:15:37;4.50;81.10
32524;DHT22;18965;52.242;20.886;2023-02-01T01:18:03;5.10;81.40
32524;DHT22;18965;52.242;20.886;2023-02-01T01:20:29;5.10;81.50
32524;DHT22;18965;52.242;20.886;2023-02-01T01:25:21;5.00;81.20
32524;DHT22;18965;52.242;20.886;2023-02-01T01:27:47;5.00;81.80
32524;DHT22;18965;52.242;20.886;2023-02-01T01:30:13;5.00;81.50
32524;DHT22;18965;52.242;20.886;2023-02-01T01:32:39;4.90;81.40
32524;DHT22;18965;52.242;20.886;2023-02-01T01:35:05;5.00;81.50
32524;DHT22;18965;52.242;20.886;2023-02-01T01:37:32;5.00;81.50
32524;DHT22;18965;52.242;20.886;2023-02-01T01:39:57;5.00;81.40
32524;DHT22;18965;52.242;20.886;2023-02-01T01:49:47;5.00;81.40
32524;DHT22;18965;52.242;20.886;2023-02-01T01:52:14;5.00;81.20
32524;DHT22;18965;52.242;20.886;2023-02-01T01:54:45;5.00;81.10
32524;DHT22;18965;52.242;20.886;2023-02-01T01:57:19;5.00;81.10
32524;DHT22;18965;52.242;20.886;2023-02-01T01:59:56;5.00;81.00
32524;DHT22;18965;52.242;20.886;2023-02-01T02:02:25;5.00;81.20
32524;DHT22;18965;52.242;20.886;2023-02-01T02:04:50;5.10;81.00
32524;DHT22;18965;52.242;20.886;2023-02-01T02:07:21;5.10;81.00
32524;DHT22;18965;52.242;20.886;2023-02-01T02:12:16;5.10;80.70
32524;DHT22;18965;52.242;20.886;2023-02-01T02:33:42;4.80;80.00
32524;DHT22;18965;52.242;20.886;2023-02-01T02:44:08;4.80;79.80
32524;DHT22;18965;52.242;20.886;2023-02-01T02:46:54;4.80;80.50
32524;DHT22;18965;52.242;20.886;2023-02-01T02:53:02;4.80;79.90
32524;DHT22;18965;52.242;20.886;2023-02-01T02:55:48;4.80;80.20
32524;DHT22;18965;52.242;20.886;2023-02-01T02:58:16;4.80;80.00
32524;DHT22;18965;52.242;20.886;2023-02-01T03:01:02;4.70;80.00
32524;DHT22;18965;52.242;20.886;2023-02-01T03:03:48;4.70;80.30
32524;DHT22;18965;52.242;20.886;2023-02-01T03:06:34;4.90;80.30
32524;DHT22;18965;52.242;20.886;2023-02-01T03:09:03;4.70;80.30
32524;DHT22;18965;52.242;20.886;2023-02-01T03:11:32;4.70;80.40
32524;DHT22;18965;52.242;20.886;2023-02-01T03:14:18;4.70;80.50
32524;DHT22;18965;52.242;20.886;2023-02-01T03:16:56;4.80;80.40
32524;DHT22;18965;52.242;20.886;2023-02-01T03:19:29;4.60;80.50
32524;DHT22;18965;52.242;20.886;2023-02-01T03:22:11;4.10;80.10
32524;DHT22;18965;52.242;20.886;2023-02-01T03:24:39;4.60;82.50
32524;DHT22;18965;52.242;20.886;2023-02-01T03:27:27;4.70;80.50
32524;DHT22;18965;52.242;20.886;2023-02-01T03:30:21;4.80;80.50
32524;DHT22;18965;52.242;20.886;2023-02-01T03:32:50;4.80;84.80
32524;DHT22;18965;52.242;20.886;2023-02-01T03:35:40;4.70;80.50
32524;DHT22;18965;52.242;20.886;2023-02-01T03:41:33;4.70;81.60
32524;DHT22;18965;52.242;20.886;2023-02-01T03:44:24;4.60;81.10
32524;DHT22;18965;52.242;20.886;2023-02-01T03:47:22;4.60;81.10
32524;DHT22;18965;52.242;20.886;2023-02-01T03:49:52;4.60;81.60
32524;DHT22;18965;52.242;20.886;2023-02-01T03:52:32;4.70;82.00
32524;DHT22;18965;52.242;20.886;2023-02-01T03:55:01;4.70;82.00
32524;DHT22;18965;52.242;20.886;2023-02-01T03:57:31;4.70;82.20
32524;DHT22;18965;52.242;20.886;2023-02-01T04:00:07;4.70;82.30
32524;DHT22;18965;52.242;20.886;2023-02-01T04:02:34;4.70;82.40
32524;DHT22;18965;52.242;20.886;2023-02-01T04:05:00;4.80;82.20
32524;DHT22;18965;52.242;20.886;2023-02-01T04:07:25;4.70;82.10
32524;DHT22;18965;52.242;20.886;2023-02-01T04:09:51;4.80;82.20
32524;DHT22;18965;52.242;20.886;2023-02-01T04:12:17;4.80;82.10
32524;DHT22;18965;52.242;20.886;2023-02-01T04:19:35;3.90;80.90
32524;DHT22;18965;52.242;20.886;2023-02-01T04:22:00;4.90;81.40
32524;DHT22;18965;52.242;20.886;2023-02-01T04:24:26;4.90;81.20
32524;DHT22;18965;52.242;20.886;2023-02-01T04:26:52;4.90;81.10
32524;DHT22;18965;52.242;20.886;2023-02-01T04:29:18;4.90;81.00
32524;DHT22;18965;52.242;20.886;2023-02-01T04:31:43;4.90;82.10
32524;DHT22;18965;52.242;20.886;2023-02-01T04:34:09;4.90;81.60
32524;DHT22;18965;52.242;20.886;2023-02-01T04:36:35;4.90;81.60
32524;DHT22;18965;52.242;20.886;2023-02-01T04:39:00;5.00;81.60
32524;DHT22;18965;52.242;20.886;2023-02-01T04:41:26;5.20;81.70
32524;DHT22;18965;52.242;20.886;2023-02-01T04:43:52;5.00;80.90
32524;DHT22;18965;52.242;20.886;2023-02-01T04:48:44;5.10;80.90
32524;DHT22;18965;52.242;20.886;2023-02-01T04:51:10;5.10;80.70
32524;DHT22;18965;52.242;20.886;2023-02-01T04:53:36;5.20;81.10
32524;DHT22;18965;52.242;20.886;2023-02-01T04:58:28;4.90;80.60
32524;DHT22;18965;52.242;20.886;2023-02-01T05:03:20;5.00;80.40
32524;DHT22;18965;52.242;20.886;2023-02-01T05:05:47;5.00;80.10
32524;DHT22;18965;52.242;20.886;2023-02-01T05:08:14;5.00;80.10
32524;DHT22;18965;52.242;20.886;2023-02-01T05:10:40;5.00;80.20
32524;DHT22;18965;52.242;20.886;2023-02-01T05:13:08;5.00;79.90
32524;DHT22;18965;52.242;20.886;2023-02-01T05:20:44;4.80;79.60
32524;DHT22;18965;52.242;20.886;2023-02-01T05:23:10;5.10;79.80
32524;DHT22;18965;52.242;20.886;2023-02-01T05:25:36;5.10;79.90
32524;DHT22;18965;52.242;20.886;2023-02-01T05:28:01;5.10;79.80
32524;DHT22;18965;52.242;20.886;2023-02-01T05:32:53;5.10;80.50
32524;DHT22;18965;52.242;20.886;2023-02-01T05:35:19;5.20;80.10
32524;DHT22;18965;52.242;20.886;2023-02-01T05:40:11;5.10;79.60
32524;DHT22;18965;52.242;20.886;2023-02-01T05:45:03;5.00;79.40
32524;DHT22;18965;52.242;20.886;2023-02-01T05:47:31;5.00;79.30
32524;DHT22;18965;52.242;20.886;2023-02-01T05:49:56;5.00;79.50
32524;DHT22;18965;52.242;20.886;2023-02-01T05:54:48;5.00;79.70
32524;DHT22;18965;52.242;20.886;2023-02-01T05:57:15;5.00;79.70
32524;DHT22;18965;52.242;20.886;2023-02-01T06:02:11;5.00;79.70
32524;DHT22;18965;52.242;20.886;2023-02-01T06:04:36;5.00;80.30
32524;DHT22;18965;52.242;20.886;2023-02-01T06:07:02;5.10;80.30
32524;DHT22;18965;52.242;20.886;2023-02-01T06:09:28;5.00;79.70
32524;DHT22;18965;52.242;20.886;2023-02-01T06:14:20;5.10;81.40
32524;DHT22;18965;52.242;20.886;2023-02-01T06:16:46;5.10;81.50
32524;DHT22;18965;52.242;20.886;2023-02-01T06:19:12;5.00;81.70
32524;DHT22;18965;52.242;20.886;2023-02-01T06:24:05;5.10;79.60
32524;DHT22;18965;52.242;20.886;2023-02-01T06:28:57;5.10;79.50
32524;DHT22;18965;52.242;20.886;2023-02-01T06:33:51;5.20;79.60
32524;DHT22;18965;52.242;20.886;2023-02-01T06:41:12;5.10;79.50
32524;DHT22;18965;52.242;20.886;2023-02-01T06:43:37;5.20;79.50
32524;DHT22;18965;52.242;20.886;2023-02-01T06:46:06;5.20;80.10
32524;DHT22;18965;52.242;20.886;2023-02-01T06:48:33;5.20;79.50
32524;DHT22;18965;52.242;20.886;2023-02-01T06:50:59;5.20;79.40
32524;DHT22;18965;52.242;20.886;2023-02-01T06:53:25;5.30;79.50
32524;DHT22;18965;52.242;20.886;2023-02-01T06:55:58;5.20;79.40
32524;DHT22;18965;52.242;20.886;2023-02-01T06:58:31;5.30;79.50
32524;DHT22;18965;52.242;20.886;2023-02-01T07:00:57;5.40;79.60
32524;DHT22;18965;52.242;20.886;2023-02-01T07:03:23;5.40;79.60
32524;DHT22;18965;52.242;20.886;2023-02-01T07:05:49;5.40;79.60
32524;DHT22;18965;52.242;20.886;2023-02-01T07:10:41;5.30;79.00
32524;DHT22;18965;52.242;20.886;2023-02-01T07:13:07;5.30;79.10
32524;DHT22;18965;52.242;20.886;2023-02-01T07:15:33;5.30;79.70
32524;DHT22;18965;52.242;20.886;2023-02-01T07:17:58;5.40;79.80
32524;DHT22;18965;52.242;20.886;2023-02-01T07:20:24;5.40;79.80
32524;DHT22;18965;52.242;20.886;2023-02-01T07:22:55;5.40;79.00
32524;DHT22;18965;52.242;20.886;2023-02-01T07:25:22;5.40;79.70
32524;DHT22;18965;52.242;20.886;2023-02-01T07:27:48;5.50;79.20
32524;DHT22;18965;52.242;20.886;2023-02-01T07:32:39;5.40;79.30
32524;DHT22;18965;52.242;20.886;2023-02-01T07:35:05;5.40;79.40
32524;DHT22;18965;52.242;20.886;2023-02-01T07:39:57;5.50;79.20
32524;DHT22;18965;52.242;20.886;2023-02-01T07:42:23;5.50;79.80
32524;DHT22;18965;52.242;20.886;2023-02-01T07:44:48;5.50;79.20
32524;DHT22;18965;52.242;20.886;2023-02-01T07:47:14;5.50;79.80
32524;DHT22;18965;52.242;20.886;2023-02-01T07:52:06;5.50;79.30
32524;DHT22;18965;52.242;20.886;2023-02-01T07:54:32;5.50;79.30
32524;DHT22;18965;52.242;20.886;2023-02-01T07:56:58;5.50;79.00
32524;DHT22;18965;52.242;20.886;2023-02-01T07:59:23;5.60;79.10
32524;DHT22;18965;52.242;20.886;2023-02-01T08:01:49;5.60;79.80
32524;DHT22;18965;52.242;20.886;2023-02-01T08:04:15;5.60;78.90
32524;DHT22;18965;52.242;20.886;2023-02-01T08:06:40;5.60;79.60
32524;DHT22;18965;52.242;20.886;2023-02-01T08:09:06;5.70;79.60
32524;DHT22;18965;52.242;20.886;2023-02-01T08:11:36;5.60;79.50
32524;DHT22;18965;52.242;20.886;2023-02-01T08:14:04;5.60;79.40
32524;DHT22;18965;52.242;20.886;2023-02-01T08:16:30;5.60;79.50
32524;DHT22;18965;52.242;20.886;2023-02-01T08:18:56;5.60;79.50
32524;DHT22;18965;52.242;20.886;2023-02-01T08:21:25;5.60;79.60
32524;DHT22;18965;52.242;20.886;2023-02-01T08:23:52;5.60;79.70
32524;DHT22;18965;52.242;20.886;2023-02-01T08:26:22;5.70;79.80
32524;DHT22;18965;52.242;20.886;2023-02-01T08:28:51;5.70;79.70
32524;DHT22;18965;52.242;20.886;2023-02-01T08:31:19;5.60;79.50
32524;DHT22;18965;52.242;20.886;2023-02-01T08:33:52;5.70;79.20
32524;DHT22;18965;52.242;20.886;2023-02-01T08:36:19;5.70;79.50
32524;DHT22;18965;52.242;20.886;2023-02-01T08:38:45;5.60;79.30
32524;DHT22;18965;52.242;20.886;2023-02-01T08:41:14;5.70;79.40
32524;DHT22;18965;52.242;20.886;2023-02-01T08:43:40;5.70;79.30
32524;DHT22;18965;52.242;20.886;2023-02-01T08:46:07;5.70;79.20
32524;DHT22;18965;52.242;20.886;2023-02-01T08:48:34;5.70;79.70
32524;DHT22;18965;52.242;20.886;2023-02-01T08:51:06;5.70;79.80
32524;DHT22;18965;52.242;20.886;2023-02-01T08:53:32;5.70;79.30
32524;DHT22;18965;52.242;20.886;2023-02-01T08:55:58;5.70;79.10
32524;DHT22;18965;52.242;20.886;2023-02-01T09:00:50;5.70;79.00
32524;DHT22;18965;52.242;20.886;2023-02-01T09:03:16;5.70;79.60
32524;DHT22;18965;52.242;20.886;2023-02-01T09:05:42;5.70;78.70
32524;DHT22;18965;52.242;20.886;2023-02-01T09:10:36;5.70;78.40
32524;DHT22;18965;52.242;20.886;2023-02-01T09:15:28;5.80;78.30
32524;DHT22;18965;52.242;20.886;2023-02-01T09:17:54;6.40;78.70
32524;DHT22;18965;52.242;20.886;2023-02-01T09:20:20;5.80;78.20
32524;DHT22;18965;52.242;20.886;2023-02-01T09:22:50;5.80;77.90
32524;DHT22;18965;52.242;20.886;2023-02-01T09:25:16;5.80;78.00
32524;DHT22;18965;52.242;20.886;2023-02-01T09:30:09;5.90;78.20
32524;DHT22;18965;52.242;20.886;2023-02-01T09:32:35;6.00;77.80
32524;DHT22;18965;52.242;20.886;2023-02-01T09:35:01;6.00;78.00
32524;DHT22;18965;52.242;20.886;2023-02-01T09:37:27;6.00;77.80
32524;DHT22;18965;52.242;20.886;2023-02-01T09:39:53;6.00;77.60
32524;DHT22;18965;52.242;20.886;2023-02-01T09:47:51;6.20;77.30
32524;DHT22;18965;52.242;20.886;2023-02-01T09:50:31;6.20;77.30
32524;DHT22;18965;52.242;20.886;2023-02-01T09:53:09;6.30;77.10
32524;DHT22;18965;52.242;20.886;2023-02-01T10:00:38;6.60;76.80
32524;DHT22;18965;52.242;20.886;2023-02-01T10:03:05;6.70;76.70
32524;DHT22;18965;52.242;20.886;2023-02-01T10:13:48;6.90;75.40
32524;DHT22;18965;52.242;20.886;2023-02-01T10:17:10;6.90;75.20
32524;DHT22;18965;52.242;20.886;2023-02-01T10:22:50;6.80;75.30
32524;DHT22;18965;52.242;20.886;2023-02-01T10:25:26;6.80;75.30
32524;DHT22;18965;52.242;20.886;2023-02-01T10:27:53;6.90;75.60
32524;DHT22;18965;52.242;20.886;2023-02-01T10:30:22;6.70;74.70
32524;DHT22;18965;52.242;20.886;2023-02-01T10:33:23;6.70;74.30
32524;DHT22;18965;52.242;20.886;2023-02-01T10:35:55;6.70;74.90
32524;DHT22;18965;52.242;20.886;2023-02-01T10:38:27;6.70;75.30
32524;DHT22;18965;52.242;20.886;2023-02-01T10:40:59;6.80;75.00
32524;DHT22;18965;52.242;20.886;2023-02-01T10:43:26;6.80;75.10
32524;DHT22;18965;52.242;20.886;2023-02-01T10:45:52;6.80;75.80
32524;DHT22;18965;52.242;20.886;2023-02-01T10:48:18;6.80;75.60
32524;DHT22;18965;52.242;20.886;2023-02-01T10:53:45;7.00;75.50
32524;DHT22;18965;52.242;20.886;2023-02-01T10:56:13;7.00;75.40
32524;DHT22;18965;52.242;20.886;2023-02-01T10:58:45;7.20;75.00
32524;DHT22;18965;52.242;20.886;2023-02-01T11:01:19;7.20;75.50
32524;DHT22;18965;52.242;20.886;2023-02-01T11:03:55;7.30;74.40
32524;DHT22;18965;52.242;20.886;2023-02-01T11:06:28;7.40;74.50
32524;DHT22;18965;52.242;20.886;2023-02-01T11:08:57;7.50;74.80
32524;DHT22;18965;52.242;20.886;2023-02-01T11:11:25;7.60;74.80
32524;DHT22;18965;52.242;20.886;2023-02-01T11:14:10;7.80;75.10
32524;DHT22;18965;52.242;20.886;2023-02-01T11:16:38;8.00;74.40
32524;DHT22;18965;52.242;20.886;2023-02-01T11:19:05;8.00;73.50
32524;DHT22;18965;52.242;20.886;2023-02-01T11:21:34;8.10;73.50
32524;DHT22;18965;52.242;20.886;2023-02-01T11:24:04;8.10;73.20
32524;DHT22;18965;52.242;20.886;2023-02-01T11:26:31;8.10;72.50
32524;DHT22;18965;52.242;20.886;2023-02-01T11:29:03;8.00;72.70
32524;DHT22;18965;52.242;20.886;2023-02-01T11:31:30;7.90;72.80
32524;DHT22;18965;52.242;20.886;2023-02-01T11:34:07;7.90;73.20
32524;DHT22;18965;52.242;20.886;2023-02-01T11:36:36;7.80;73.40
32524;DHT22;18965;52.242;20.886;2023-02-01T11:39:23;7.70;72.60
32524;DHT22;18965;52.242;20.886;2023-02-01T11:42:05;7.60;74.50
32524;DHT22;18965;52.242;20.886;2023-02-01T11:44:39;7.60;73.10
32524;DHT22;18965;52.242;20.886;2023-02-01T11:47:23;7.60;73.30
32524;DHT22;18965;52.242;20.886;2023-02-01T11:49:54;7.60;73.70
32524;DHT22;18965;52.242;20.886;2023-02-01T12:03:15;8.10;73.00
32524;DHT22;18965;52.242;20.886;2023-02-01T12:06:04;8.10;73.00
32524;DHT22;18965;52.242;20.886;2023-02-01T12:11:26;7.90;72.80
32524;DHT22;18965;52.242;20.886;2023-02-01T12:14:23;7.80;73.20
32524;DHT22;18965;52.242;20.886;2023-02-01T12:22:32;7.80;73.50
32524;DHT22;18965;52.242;20.886;2023-02-01T12:38:56;7.60;74.20
32524;DHT22;18965;52.242;20.886;2023-02-01T12:44:17;7.50;74.50
32524;DHT22;18965;52.242;20.886;2023-02-01T12:46:52;7.50;74.70
32524;DHT22;18965;52.242;20.886;2023-02-01T12:49:44;7.40;74.80
32524;DHT22;18965;52.242;20.886;2023-02-01T12:52:20;7.40;74.80
32524;DHT22;18965;52.242;20.886;2023-02-01T13:05:22;7.50;75.00
32524;DHT22;18965;52.242;20.886;2023-02-01T13:11:47;7.50;74.80
32524;DHT22;18965;52.242;20.886;2023-02-01T13:17:05;7.40;74.50
32524;DHT22;18965;52.242;20.886;2023-02-01T13:23:05;7.40;75.10
32524;DHT22;18965;52.242;20.886;2023-02-01T13:28:06;7.30;75.00
32524;DHT22;18965;52.242;20.886;2023-02-01T13:36:48;7.10;75.20
32524;DHT22;18965;52.242;20.886;2023-02-01T13:41:59;7.10;75.40
32524;DHT22;18965;52.242;20.886;2023-02-01T13:44:49;7.20;75.50
32524;DHT22;18965;52.242;20.886;2023-02-01T13:47:19;7.10;75.40
32524;DHT22;18965;52.242;20.886;2023-02-01T13:49:45;7.10;75.50
32524;DHT22;18965;52.242;20.886;2023-02-01T13:52:32;7.00;75.50
32524;DHT22;18965;52.242;20.886;2023-02-01T13:55:03;7.00;75.70
32524;DHT22;18965;52.242;20.886;2023-02-01T13:57:41;7.00;75.80
32524;DHT22;18965;52.242;20.886;2023-02-01T14:10:56;6.90;76.20
32524;DHT22;18965;52.242;20.886;2023-02-01T14:13:41;6.90;76.40
32524;DHT22;18965;52.242;20.886;2023-02-01T14:16:12;6.90;76.50
32524;DHT22;18965;52.242;20.886;2023-02-01T14:26:48;6.90;75.90
32524;DHT22;18965;52.242;20.886;2023-02-01T14:32:22;6.90;76.00
32524;DHT22;18965;52.242;20.886;2023-02-01T14:34:51;6.80;76.10
32524;DHT22;18965;52.242;20.886;2023-02-01T14:40:14;6.80;76.30
32524;DHT22;18965;52.242;20.886;2023-02-01T14:56:13;6.80;76.20
32524;DHT22;18965;52.242;20.886;2023-02-01T15:04:15;6.70;76.20
32524;DHT22;18965;52.242;20.886;2023-02-01T15:06:53;6.70;76.20
32524;DHT22;18965;52.242;20.886;2023-02-01T15:14:29;6.70;76.30
32524;DHT22;18965;52.242;20.886;2023-02-01T15:16:55;6.70;76.40
32524;DHT22;18965;52.242;20.886;2023-02-01T15:19:23;6.70;76.40
32524;DHT22;18965;52.242;20.886;2023-02-01T15:21:55;6.70;76.40
32524;DHT22;18965;52.242;20.886;2023-02-01T15:24:29;6.70;76.50
32524;DHT22;18965;52.242;20.886;2023-02-01T15:27:03;6.70;76.50
32524;DHT22;18965;52.242;20.886;2023-02-01T15:29:29;6.70;76.50
32524;DHT22;18965;52.242;20.886;2023-02-01T15:31:58;6.70;76.50
32524;DHT22;18965;52.242;20.886;2023-02-01T15:34:45;6.70;76.60
32524;DHT22;18965;52.242;20.886;2023-02-01T15:37:13;6.60;76.60
32524;DHT22;18965;52.242;20.886;2023-02-01T15:42:30;6.60;76.80
32524;DHT22;18965;52.242;20.886;2023-02-01T15:44:56;6.60;76.80
32524;DHT22;18965;52.242;20.886;2023-02-01T15:47:26;6.60;76.90
32524;DHT22;18965;52.242;20.886;2023-02-01T15:49:57;6.60;77.00
32524;DHT22;18965;52.242;20.886;2023-02-01T15:54:59;6.60;77.00
32524;DHT22;18965;52.242;20.886;2023-02-01T15:57:34;6.60;77.10
32524;DHT22;18965;52.242;20.886;2023-02-01T16:00:18;6.60;77.10
32524;DHT22;18965;52.242;20.886;2023-02-01T16:02:57;6.50;77.10
32524;DHT22;18965;52.242;20.886;2023-02-01T16:08:04;6.40;76.90
32524;DHT22;18965;52.242;20.886;2023-02-01T16:10:31;6.40;76.90
32524;DHT22;18965;52.242;20.886;2023-02-01T16:12:57;6.30;77.00
32524;DHT22;18965;52.242;20.886;2023-02-01T16:15:26;6.30;77.20
32524;DHT22;18965;52.242;20.886;2023-02-01T16:17:55;6.20;77.30
32524;DHT22;18965;52.242;20.886;2023-02-01T16:20:20;6.20;77.50
32524;DHT22;18965;52.242;20.886;2023-02-01T16:22:46;6.20;77.70
32524;DHT22;18965;52.242;20.886;2023-02-01T16:25:12;6.20;77.90
32524;DHT22;18965;52.242;20.886;2023-02-01T16:27:38;6.20;77.90
32524;DHT22;18965;52.242;20.886;2023-02-01T16:30:04;6.20;77.90
32524;DHT22;18965;52.242;20.886;2023-02-01T16:32:30;6.20;78.00
32524;DHT22;18965;52.242;20.886;2023-02-01T16:34:56;6.10;77.90
32524;DHT22;18965;52.242;20.886;2023-02-01T16:37:24;6.10;77.90
32524;DHT22;18965;52.242;20.886;2023-02-01T16:39:52;6.10;77.80
32524;DHT22;18965;52.242;20.886;2023-02-01T16:42:18;6.10;78.00
32524;DHT22;18965;52.242;20.886;2023-02-01T16:44:44;6.10;78.20
32524;DHT22;18965;52.242;20.886;2023-02-01T16:47:18;6.10;78.20
32524;DHT22;18965;52.242;20.886;2023-02-01T16:49:45;6.10;78.20
32524;DHT22;18965;52.242;20.886;2023-02-01T16:52:20;6.00;78.10
32524;DHT22;18965;52.242;20.886;2023-02-01T16:54:47;6.00;78.20
32524;DHT22;18965;52.242;20.886;2023-02-01T16:57:14;6.10;78.30
32524;DHT22;18965;52.242;20.886;2023-02-01T16:59:42;6.10;78.30
32524;DHT22;18965;52.242;20.886;2023-02-01T17:02:14;6.10;78.30
32524;DHT22;18965;52.242;20.886;2023-02-01T17:04:40;6.10;78.40
32524;DHT22;18965;52.242;20.886;2023-02-01T17:07:07;6.10;78.50
32524;DHT22;18965;52.242;20.886;2023-02-01T17:09:36;6.10;78.60
32524;DHT22;18965;52.242;20.886;2023-02-01T17:12:03;6.10;78.50
32524;DHT22;18965;52.242;20.886;2023-02-01T17:14:34;6.10;78.50
32524;DHT22;18965;52.242;20.886;2023-02-01T17:17:01;6.10;78.60
32524;DHT22;18965;52.242;20.886;2023-02-01T17:19:27;6.10;78.70
32524;DHT22;18965;52.242;20.886;2023-02-01T17:21:55;6.10;78.60
32524;DHT22;18965;52.242;20.886;2023-02-01T17:24:24;6.10;78.50
32524;DHT22;18965;52.242;20.886;2023-02-01T17:26:50;6.10;78.50
32524;DHT22;18965;52.242;20.886;2023-02-01T17:29:17;6.10;78.50
32524;DHT22;18965;52.242;20.886;2023-02-01T17:31:49;6.10;78.60
32524;DHT22;18965;52.242;20.886;2023-02-01T17:34:15;6.10;78.50
32524;DHT22;18965;52.242;20.886;2023-02-01T17:36:43;6.10;78.50
32524;DHT22;18965;52.242;20.886;2023-02-01T17:39:09;6.10;79.40
32524;DHT22;18965;52.242;20.886;2023-02-01T17:41:36;6.10;78.50
32524;DHT22;18965;52.242;20.886;2023-02-01T17:44:03;6.10;78.50
32524;DHT22;18965;52.242;20.886;2023-02-01T17:46:30;6.10;78.40
32524;DHT22;18965;52.242;20.886;2023-02-01T17:48:56;6.10;78.50
32524;DHT22;18965;52.242;20.886;2023-02-01T17:51:27;6.10;78.60
32524;DHT22;18965;52.242;20.886;2023-02-01T17:53:54;6.10;78.80
32524;DHT22;18965;52.242;20.886;2023-02-01T17:56:24;6.10;79.00
32524;DHT22;18965;52.242;20.886;2023-02-01T17:58:50;6.10;79.10
32524;DHT22;18965;52.242;20.886;2023-02-01T18:01:25;6.10;79.10
32524;DHT22;18965;52.242;20.886;2023-02-01T18:03:51;6.10;79.30
32524;DHT22;18965;52.242;20.886;2023-02-01T18:06:20;6.10;79.00
32524;DHT22;18965;52.242;20.886;2023-02-01T18:08:46;6.00;78.80
32524;DHT22;18965;52.242;20.886;2023-02-01T18:11:15;6.00;78.80
32524;DHT22;18965;52.242;20.886;2023-02-01T18:13:42;6.00;79.00
32524;DHT22;18965;52.242;20.886;2023-02-01T18:16:25;6.00;79.00
32524;DHT22;18965;52.242;20.886;2023-02-01T18:18:51;5.90;79.20
32524;DHT22;18965;52.242;20.886;2023-02-01T18:21:19;5.90;79.10
32524;DHT22;18965;52.242;20.886;2023-02-01T18:23:46;5.90;79.30
32524;DHT22;18965;52.242;20.886;2023-02-01T18:26:13;5.80;79.20
32524;DHT22;18965;52.242;20.886;2023-02-01T18:28:40;5.80;79.40
32524;DHT22;18965;52.242;20.886;2023-02-01T18:31:10;5.80;79.50
32524;DHT22;18965;52.242;20.886;2023-02-01T18:33:41;5.80;79.70
32524;DHT22;18965;52.242;20.886;2023-02-01T18:36:11;5.80;79.80
32524;DHT22;18965;52.242;20.886;2023-02-01T18:38:37;5.80;80.00
32524;DHT22;18965;52.242;20.886;2023-02-01T18:41:03;5.80;79.80
32524;DHT22;18965;52.242;20.886;2023-02-01T18:43:30;5.80;79.90
32524;DHT22;18965;52.242;20.886;2023-02-01T18:45:56;5.70;80.00
32524;DHT22;18965;52.242;20.886;2023-02-01T18:48:22;6.70;80.60
32524;DHT22;18965;52.242;20.886;2023-02-01T18:50:48;5.70;80.10
32524;DHT22;18965;52.242;20.886;2023-02-01T18:53:23;5.70;80.10
32524;DHT22;18965;52.242;20.886;2023-02-01T18:55:53;5.70;80.10
32524;DHT22;18965;52.242;20.886;2023-02-01T18:58:19;5.70;80.10
32524;DHT22;18965;52.242;20.886;2023-02-01T19:00:46;5.70;80.30
32524;DHT22;18965;52.242;20.886;2023-02-01T19:03:13;5.70;80.30
32524;DHT22;18965;52.242;20.886;2023-02-01T19:05:39;5.70;80.20
32524;DHT22;18965;52.242;20.886;2023-02-01T19:08:05;5.70;80.30
32524;DHT22;18965;52.242;20.886;2023-02-01T19:10:31;5.70;80.30
32524;DHT22;18965;52.242;20.886;2023-02-01T19:12:58;5.70;80.40
32524;DHT22;18965;52.242;20.886;2023-02-01T19:15:24;5.70;80.40
32524;DHT22;18965;52.242;20.886;2023-02-01T19:17:52;5.70;80.30
32524;DHT22;18965;52.242;20.886;2023-02-01T19:20:26;5.70;80.50
32524;DHT22;18965;52.242;20.886;2023-02-01T19:22:52;5.70;80.50
32524;DHT22;18965;52.242;20.886;2023-02-01T19:25:23;5.60;80.40
32524;DHT22;18965;52.242;20.886;2023-02-01T19:27:50;5.60;80.70
32524;DHT22;18965;52.242;20.886;2023-02-01T19:30:17;5.60;80.50
32524;DHT22;18965;52.242;20.886;2023-02-01T19:32:44;5.60;80.40
32524;DHT22;18965;52.242;20.886;2023-02-01T19:35:12;5.60;80.50
32524;DHT22;18965;52.242;20.886;2023-02-01T19:37:40;5.60;80.50
32524;DHT22;18965;52.242;20.886;2023-02-01T19:40:11;5.60;80.70
32524;DHT22;18965;52.242;20.886;2023-02-01T19:42:37;5.60;80.70
32524;DHT22;18965;52.242;20.886;2023-02-01T19:45:04;5.60;80.60
32524;DHT22;18965;52.242;20.886;2023-02-01T19:47:30;5.60;80.90
32524;DHT22;18965;52.242;20.886;2023-02-01T19:49:56;5.60;80.90
32524;DHT22;18965;52.242;20.886;2023-02-01T19:52:21;5.60;80.90
32524;DHT22;18965;52.242;20.886;2023-02-01T19:54:47;5.60;81.00
32524;DHT22;18965;52.242;20.886;2023-02-01T19:57:13;5.60;81.00
32524;DHT22;18965;52.242;20.886;2023-02-01T19:59:38;5.60;81.00
32524;DHT22;18965;52.242;20.886;2023-02-01T20:02:04;5.60;81.10
32524;DHT22;18965;52.242;20.886;2023-02-01T20:04:30;5.60;81.20
32524;DHT22;18965;52.242;20.886;2023-02-01T20:06:56;5.70;81.30
32524;DHT22;18965;52.242;20.886;2023-02-01T20:09:24;5.70;81.30
32524;DHT22;18965;52.242;20.886;2023-02-01T20:11:51;5.70;81.20
32524;DHT22;18965;52.242;20.886;2023-02-01T20:14:20;5.70;81.30
32524;DHT22;18965;52.242;20.886;2023-02-01T20:16:45;5.70;81.30
32524;DHT22;18965;52.242;20.886;2023-02-01T20:19:11;5.70;81.20
32524;DHT22;18965;52.242;20.886;2023-02-01T20:21:38;5.70;81.10
32524;DHT22;18965;52.242;20.886;2023-02-01T20:24:05;5.70;81.00
32524;DHT22;18965;52.242;20.886;2023-02-01T20:26:32;5.60;80.70
32524;DHT22;18965;52.242;20.886;2023-02-01T20:28:59;5.50;80.60
32524;DHT22;18965;52.242;20.886;2023-02-01T20:31:25;5.50;80.60
32524;DHT22;18965;52.242;20.886;2023-02-01T20:33:54;5.40;80.50
32524;DHT22;18965;52.242;20.886;2023-02-01T20:36:20;5.30;80.60
32524;DHT22;18965;52.242;20.886;2023-02-01T20:38:46;5.30;80.70
32524;DHT22;18965;52.242;20.886;2023-02-01T20:41:12;5.20;81.20